sensor_id;sensor_type;location;lat;lon;timestamp;temperature;humidity
23237;DHT22;11787;52.018;8.570;2022-08-19T00:00:41;20.00;99.90
23237;DHT22;11787;52.018;8.570;2022-08-19T00:03:06;20.00;99.90
23237;DHT22;11787;52.018;8.570;2022-08-19T00:05:32;20.00;99.90
23237;DHT22;11787;52.018;8.570;2022-08-19T00:07:58;20.00;99.90
23237;DHT22;11787;52.018;8.570;2022-08-19T00:10:24;20.00;99.90
23237;DHT22;11787;52.018;8.570;2022-08-19T00:12:50;19.90;99.90
23237;DHT22;11787;52.018;8.570;2022-08-19T00:15:18;19.90;99.90
23237;DHT22;11787;52.018;8.570;2022-08-19T00:17:45;19.90;99.90
23237;DHT22;11787;52.018;8.570;2022-08-19T00:20:13;19.90;99.90
23237;DHT22;11787;52.018;8.570;2022-08-19T00:22:42;19.90;99.90
23237;DHT22;11787;52.018;8.570;2022-08-19T00:25:08;19.90;99.90
23237;DHT22;11787;52.018;8.570;2022-08-19T00:27:34;19.90;99.90
23237;DHT22;11787;52.018;8.570;2022-08-19T00:29:59;19.90;99.90
23237;DHT22;11787;52.018;8.570;2022-08-19T00:32:27;19.80;99.90
23237;DHT22;11787;52.018;8.570;2022-08-19T00:34:53;19.70;99.90
23237;DHT22;11787;52.018;8.570;2022-08-19T00:37:23;19.60;99.90
23237;DHT22;11787;52.018;8.570;2022-08-19T00:39:52;19.60;99.90
23237;DHT22;11787;52.018;8.570;2022-08-19T00:42:19;19.60;99.90
23237;DHT22;11787;52.018;8.570;2022-08-19T00:44:45;19.70;99.90
23237;DHT22;11787;52.018;8.570;2022-08-19T00:47:11;19.60;99.90
23237;DHT22;11787;52.018;8.570;2022-08-19T00:49:52;19.60;99.90
23237;DHT22;11787;52.018;8.570;2022-08-19T00:52:27;19.60;99.90
23237;DHT22;11787;52.018;8.570;2022-08-19T00:54:55;19.60;99.90
23237;DHT22;11787;52.018;8.570;2022-08-19T00:57:28;19.50;99.90
23237;DHT22;11787;52.018;8.570;2022-08-19T00:59:56;19.50;99.90
23237;DHT22;11787;52.018;8.570;2022-08-19T01:02:23;19.50;99.90
23237;DHT22;11787;52.018;8.570;2022-08-19T01:04:49;19.50;99.90
23237;DHT22;11787;52.018;8.570;2022-08-19T01:07:15;19.40;99.90
23237;DHT22;11787;52.018;8.570;2022-08-19T01:09:40;19.40;99.90
23237;DHT22;11787;52.018;8.570;2022-08-19T01:12:06;19.50;99.90
23237;DHT22;11787;52.018;8.570;2022-08-19T01:14:33;19.40;99.90
23237;DHT22;11787;52.018;8.570;2022-08-19T01:16:59;19.50;99.90
23237;DHT22;11787;52.018;8.570;2022-08-19T01:19:33;19.40;99.90
23237;DHT22;11787;52.018;8.570;2022-08-19T01:22:13;19.40;99.90
23237;DHT22;11787;52.018;8.570;2022-08-19T01:24:40;19.30;99.90
23237;DHT22;11787;52.018;8.570;2022-08-19T01:27:06;19.20;99.90
23237;DHT22;11787;52.018;8.570;2022-08-19T01:29:32;19.20;99.90
23237;DHT22;11787;52.018;8.570;2022-08-19T01:31:59;19.20;99.90
23237;DHT22;11787;52.018;8.570;2022-08-19T01:34:26;19.20;99.90
23237;DHT22;11787;52.018;8.570;2022-08-19T01:36:51;19.20;99.90
23237;DHT22;11787;52.018;8.570;2022-08-19T01:39:21;19.20;99.90
23237;DHT22;11787;52.018;8.570;2022-08-19T01:41:48;19.30;99.90
23237;DHT22;11787;52.018;8.570;2022-08-19T01:44:14;19.20;99.90
23237;DHT22;11787;52.018;8.570;2022-08-19T01:46:41;19.20;99.90
23237;DHT22;11787;52.018;8.570;2022-08-19T01:49:08;19.10;99.90
23237;DHT22;11787;52.018;8.570;2022-08-19T01:51:34;19.00;99.90
23237;DHT22;11787;52.018;8.570;2022-08-19T01:53:59;18.90;99.90
23237;DHT22;11787;52.018;8.570;2022-08-19T01:56:25;18.90;99.90
23237;DHT22;11787;52.018;8.570;2022-08-19T01:59:00;18.90;99.90
23237;DHT22;11787;52.018;8.570;2022-08-19T02:01:26;18.90;99.90
23237;DHT22;11787;52.018;8.570;2022-08-19T02:03:52;19.00;99.90
23237;DHT22;11787;52.018;8.570;2022-08-19T02:06:18;19.00;99.90
23237;DHT22;11787;52.018;8.570;2022-08-19T02:08:44;19.00;99.90
23237;DHT22;11787;52.018;8.570;2022-08-19T02:11:18;19.00;99.90
23237;DHT22;11787;52.018;8.570;2022-08-19T02:13:43;19.00;99.90
23237;DHT22;11787;52.018;8.570;2022-08-19T02:16:09;19.00;99.90
23237;DHT22;11787;52.018;8.570;2022-08-19T02:18:35;19.00;99.90
23237;DHT22;11787;52.018;8.570;2022-08-19T02:21:00;18.90;99.90
23237;DHT22;11787;52.018;8.570;2022-08-19T02:23:26;19.00;99.90
23237;DHT22;11787;52.018;8.570;2022-08-19T02:25:52;18.90;99.90
23237;DHT22;11787;52.018;8.570;2022-08-19T02:28:17;18.90;99.90
23237;DHT22;11787;52.018;8.570;2022-08-19T02:30:43;18.80;99.90
23237;DHT22;11787;52.018;8.570;2022-08-19T02:33:08;18.80;99.90
23237;DHT22;11787;52.018;8.570;2022-08-19T02:35:34;18.80;99.90
23237;DHT22;11787;52.018;8.570;2022-08-19T02:37:59;18.80;99.90
23237;DHT22;11787;52.018;8.570;2022-08-19T02:40:50;18.80;99.90
23237;DHT22;11787;52.018;8.570;2022-08-19T02:43:20;18.70;99.90
23237;DHT22;11787;52.018;8.570;2022-08-19T02:45:45;18.70;99.90
23237;DHT22;11787;52.018;8.570;2022-08-19T02:48:11;18.70;99.90
23237;DHT22;11787;52.018;8.570;2022-08-19T02:50:37;18.70;99.90
23237;DHT22;11787;52.018;8.570;2022-08-19T02:53:04;18.70;99.90
23237;DHT22;11787;52.018;8.570;2022-08-19T02:55:29;18.70;99.90
23237;DHT22;11787;52.018;8.570;2022-08-19T02:57:55;18.70;99.90
23237;DHT22;11787;52.018;8.570;2022-08-19T03:00:22;18.70;99.90
23237;DHT22;11787;52.018;8.570;2022-08-19T03:02:48;18.70;99.90
23237;DHT22;11787;52.018;8.570;2022-08-19T03:05:14;18.70;99.90
23237;DHT22;11787;52.018;8.570;2022-08-19T03:07:39;18.70;99.90
23237;DHT22;11787;52.018;8.570;2022-08-19T03:10:05;18.70;99.90
23237;DHT22;11787;52.018;8.570;2022-08-19T03:12:31;18.70;99.90
23237;DHT22;11787;52.018;8.570;2022-08-19T03:14:56;18.70;99.90
23237;DHT22;11787;52.018;8.570;2022-08-19T03:17:22;18.70;99.90
23237;DHT22;11787;52.018;8.570;2022-08-19T03:19:47;18.60;99.90
23237;DHT22;11787;52.018;8.570;2022-08-19T03:22:12;18.50;99.90
23237;DHT22;11787;52.018;8.570;2022-08-19T03:24:39;18.50;99.90
23237;DHT22;11787;52.018;8.570;2022-08-19T03:27:04;18.50;99.90
23237;DHT22;11787;52.018;8.570;2022-08-19T03:29:30;18.40;99.90
23237;DHT22;11787;52.018;8.570;2022-08-19T03:31:57;18.40;99.90
23237;DHT22;11787;52.018;8.570;2022-08-19T03:34:24;18.40;99.90
23237;DHT22;11787;52.018;8.570;2022-08-19T03:36:52;18.50;99.90
23237;DHT22;11787;52.018;8.570;2022-08-19T03:39:18;18.40;99.90
23237;DHT22;11787;52.018;8.570;2022-08-19T03:41:44;18.40;99.90
23237;DHT22;11787;52.018;8.570;2022-08-19T03:44:10;18.40;99.90
23237;DHT22;11787;52.018;8.570;2022-08-19T03:46:35;18.30;99.90
23237;DHT22;11787;52.018;8.570;2022-08-19T03:49:02;18.30;99.90
23237;DHT22;11787;52.018;8.570;2022-08-19T03:51:34;18.20;99.90
23237;DHT22;11787;52.018;8.570;2022-08-19T03:54:01;18.20;99.90
23237;DHT22;11787;52.018;8.570;2022-08-19T03:56:27;18.10;99.90
23237;DHT22;11787;52.018;8.570;2022-08-19T03:58:53;18.10;99.90
23237;DHT22;11787;52.018;8.570;2022-08-19T04:01:21;18.20;99.90
23237;DHT22;11787;52.018;8.570;2022-08-19T04:03:47;18.20;99.90
23237;DHT22;11787;52.018;8.570;2022-08-19T04:06:14;18.20;99.90
23237;DHT22;11787;52.018;8.570;2022-08-19T04:08:40;18.20;99.90
23237;DHT22;11787;52.018;8.570;2022-08-19T04:11:08;18.20;99.90
23237;DHT22;11787;52.018;8.570;2022-08-19T04:13:33;18.20;99.90
23237;DHT22;11787;52.018;8.570;2022-08-19T04:15:59;18.10;99.90
23237;DHT22;11787;52.018;8.570;2022-08-19T04:18:24;18.10;99.90
23237;DHT22;11787;52.018;8.570;2022-08-19T04:20:50;18.00;99.90
23237;DHT22;11787;52.018;8.570;2022-08-19T04:23:16;18.00;99.90
23237;DHT22;11787;52.018;8.570;2022-08-19T04:25:43;18.00;99.90
23237;DHT22;11787;52.018;8.570;2022-08-19T04:28:09;18.00;99.90
23237;DHT22;11787;52.018;8.570;2022-08-19T04:30:45;18.10;99.90
23237;DHT22;11787;52.018;8.570;2022-08-19T04:33:13;18.20;99.90
23237;DHT22;11787;52.018;8.570;2022-08-19T04:35:41;18.20;99.90
23237;DHT22;11787;52.018;8.570;2022-08-19T04:38:07;18.20;99.90
23237;DHT22;11787;52.018;8.570;2022-08-19T04:40:33;18.20;99.90
23237;DHT22;11787;52.018;8.570;2022-08-19T04:43:18;18.20;99.90
23237;DHT22;11787;52.018;8.570;2022-08-19T04:45:44;18.20;99.90
23237;DHT22;11787;52.018;8.570;2022-08-19T04:48:10;18.30;99.90
23237;DHT22;11787;52.018;8.570;2022-08-19T04:50:35;18.30;99.90
23237;DHT22;11787;52.018;8.570;2022-08-19T04:53:01;18.30;99.90
23237;DHT22;11787;52.018;8.570;2022-08-19T04:55:26;18.30;99.90
23237;DHT22;11787;52.018;8.570;2022-08-19T04:57:53;18.30;99.90
23237;DHT22;11787;52.018;8.570;2022-08-19T05:00:18;18.40;99.90
23237;DHT22;11787;52.018;8.570;2022-08-19T05:02:44;18.40;99.90
23237;DHT22;11787;52.018;8.570;2022-08-19T05:05:09;18.30;99.90
23237;DHT22;11787;52.018;8.570;2022-08-19T05:07:35;18.30;99.90
23237;DHT22;11787;52.018;8.570;2022-08-19T05:10:01;18.30;99.90
23237;DHT22;11787;52.018;8.570;2022-08-19T05:12:27;18.30;99.90
23237;DHT22;11787;52.018;8.570;2022-08-19T05:14:53;18.30;99.90
23237;DHT22;11787;52.018;8.570;2022-08-19T05:17:19;18.40;99.90
23237;DHT22;11787;52.018;8.570;2022-08-19T05:19:45;18.40;99.90
23237;DHT22;11787;52.018;8.570;2022-08-19T05:22:29;18.40;99.90
23237;DHT22;11787;52.018;8.570;2022-08-19T05:25:01;18.50;99.90
23237;DHT22;11787;52.018;8.570;2022-08-19T05:27:26;18.60;99.90
23237;DHT22;11787;52.018;8.570;2022-08-19T05:29:52;18.60;99.90
23237;DHT22;11787;52.018;8.570;2022-08-19T05:32:17;18.60;99.90
23237;DHT22;11787;52.018;8.570;2022-08-19T05:34:43;18.60;99.90
23237;DHT22;11787;52.018;8.570;2022-08-19T05:37:08;18.70;99.90
23237;DHT22;11787;52.018;8.570;2022-08-19T05:39:35;18.70;99.90
23237;DHT22;11787;52.018;8.570;2022-08-19T05:42:02;18.70;99.90
23237;DHT22;11787;52.018;8.570;2022-08-19T05:44:30;18.80;99.90
23237;DHT22;11787;52.018;8.570;2022-08-19T05:46:57;18.90;99.90
23237;DHT22;11787;52.018;8.570;2022-08-19T05:49:23;18.90;99.90
23237;DHT22;11787;52.018;8.570;2022-08-19T05:51:50;18.80;99.90
23237;DHT22;11787;52.018;8.570;2022-08-19T05:54:15;18.90;99.90
23237;DHT22;11787;52.018;8.570;2022-08-19T05:56:41;18.90;99.90
23237;DHT22;11787;52.018;8.570;2022-08-19T05:59:07;18.90;99.90
23237;DHT22;11787;52.018;8.570;2022-08-19T06:01:33;18.90;99.90
23237;DHT22;11787;52.018;8.570;2022-08-19T06:03:59;19.00;99.90
23237;DHT22;11787;52.018;8.570;2022-08-19T06:06:25;19.00;99.90
23237;DHT22;11787;52.018;8.570;2022-08-19T06:08:50;19.10;99.90
23237;DHT22;11787;52.018;8.570;2022-08-19T06:13:42;19.10;99.90
23237;DHT22;11787;52.018;8.570;2022-08-19T06:16:08;19.00;99.90
23237;DHT22;11787;52.018;8.570;2022-08-19T06:18:33;19.10;99.90
23237;DHT22;11787;52.018;8.570;2022-08-19T06:20:59;19.30;99.90
23237;DHT22;11787;52.018;8.570;2022-08-19T06:23:29;19.50;99.90
23237;DHT22;11787;52.018;8.570;2022-08-19T06:25:56;19.60;99.90
23237;DHT22;11787;52.018;8.570;2022-08-19T06:28:21;19.70;99.90
23237;DHT22;11787;52.018;8.570;2022-08-19T06:30:49;19.80;99.90
23237;DHT22;11787;52.018;8.570;2022-08-19T06:33:15;19.80;99.90
23237;DHT22;11787;52.018;8.570;2022-08-19T06:35:41;19.70;99.90
23237;DHT22;11787;52.018;8.570;2022-08-19T06:38:07;19.70;99.90
23237;DHT22;11787;52.018;8.570;2022-08-19T06:40:32;19.60;99.90
23237;DHT22;11787;52.018;8.570;2022-08-19T06:42:58;19.70;99.90
23237;DHT22;11787;52.018;8.570;2022-08-19T06:45:26;19.70;99.90
23237;DHT22;11787;52.018;8.570;2022-08-19T06:47:52;19.90;99.90
23237;DHT22;11787;52.018;8.570;2022-08-19T06:50:22;20.10;99.90
23237;DHT22;11787;52.018;8.570;2022-08-19T06:52:47;20.10;99.90
23237;DHT22;11787;52.018;8.570;2022-08-19T06:55:13;20.20;99.90
23237;DHT22;11787;52.018;8.570;2022-08-19T06:57:39;20.30;99.90
23237;DHT22;11787;52.018;8.570;2022-08-19T07:00:05;20.40;99.90
23237;DHT22;11787;52.018;8.570;2022-08-19T07:02:35;20.40;99.90
23237;DHT22;11787;52.018;8.570;2022-08-19T07:05:02;20.30;99.90
23237;DHT22;11787;52.018;8.570;2022-08-19T07:07:29;20.50;99.90
23237;DHT22;11787;52.018;8.570;2022-08-19T07:09:54;20.50;99.90
23237;DHT22;11787;52.018;8.570;2022-08-19T07:12:20;20.50;99.90
23237;DHT22;11787;52.018;8.570;2022-08-19T07:14:46;20.40;99.90
23237;DHT22;11787;52.018;8.570;2022-08-19T07:17:12;20.50;99.90
23237;DHT22;11787;52.018;8.570;2022-08-19T07:19:39;20.60;99.90
23237;DHT22;11787;52.018;8.570;2022-08-19T07:22:05;20.80;99.90
23237;DHT22;11787;52.018;8.570;2022-08-19T07:24:31;21.00;99.90
23237;DHT22;11787;52.018;8.570;2022-08-19T07:26:59;21.10;99.90
23237;DHT22;11787;52.018;8.570;2022-08-19T07:29:28;21.20;99.90
23237;DHT22;11787;52.018;8.570;2022-08-19T07:31:54;21.20;99.90
23237;DHT22;11787;52.018;8.570;2022-08-19T07:34:24;21.30;99.90
23237;DHT22;11787;52.018;8.570;2022-08-19T07:36:49;21.30;99.90
23237;DHT22;11787;52.018;8.570;2022-08-19T07:39:17;21.30;99.90
23237;DHT22;11787;52.018;8.570;2022-08-19T07:41:43;21.40;99.90
23237;DHT22;11787;52.018;8.570;2022-08-19T07:44:10;21.50;99.90
23237;DHT22;11787;52.018;8.570;2022-08-19T07:46:37;21.60;99.90
23237;DHT22;11787;52.018;8.570;2022-08-19T07:49:03;21.60;99.90
23237;DHT22;11787;52.018;8.570;2022-08-19T07:51:29;21.70;99.90
23237;DHT22;11787;52.018;8.570;2022-08-19T07:53:55;21.70;99.90
23237;DHT22;11787;52.018;8.570;2022-08-19T07:56:21;21.70;99.90
23237;DHT22;11787;52.018;8.570;2022-08-19T07:58:47;21.80;99.90
23237;DHT22;11787;52.018;8.570;2022-08-19T08:01:17;21.80;99.90
23237;DHT22;11787;52.018;8.570;2022-08-19T08:03:43;21.80;99.90
23237;DHT22;11787;52.018;8.570;2022-08-19T08:06:27;21.90;99.90
23237;DHT22;11787;52.018;8.570;2022-08-19T08:09:13;22.00;99.90
23237;DHT22;11787;52.018;8.570;2022-08-19T08:11:55;22.10;99.90
23237;DHT22;11787;52.018;8.570;2022-08-19T08:14:32;22.20;99.90
23237;DHT22;11787;52.018;8.570;2022-08-19T08:16:59;22.10;99.90
23237;DHT22;11787;52.018;8.570;2022-08-19T08:19:27;22.10;99.90
23237;DHT22;11787;52.018;8.570;2022-08-19T08:21:58;22.20;99.90
23237;DHT22;11787;52.018;8.570;2022-08-19T08:24:25;22.20;99.90
23237;DHT22;11787;52.018;8.570;2022-08-19T08:26:51;22.30;99.90
23237;DHT22;11787;52.018;8.570;2022-08-19T08:29:16;22.50;99.90
23237;DHT22;11787;52.018;8.570;2022-08-19T08:31:43;22.60;99.90
23237;DHT22;11787;52.018;8.570;2022-08-19T08:34:09;22.80;99.90
23237;DHT22;11787;52.018;8.570;2022-08-19T08:36:38;22.80;99.90
23237;DHT22;11787;52.018;8.570;2022-08-19T08:39:10;22.90;99.90
23237;DHT22;11787;52.018;8.570;2022-08-19T08:44:05;23.20;99.90
23237;DHT22;11787;52.018;8.570;2022-08-19T08:46:39;23.40;99.90
23237;DHT22;11787;52.018;8.570;2022-08-19T08:51:46;23.60;99.90
23237;DHT22;11787;52.018;8.570;2022-08-19T08:54:14;23.60;99.90
23237;DHT22;11787;52.018;8.570;2022-08-19T08:56:40;23.60;99.90
23237;DHT22;11787;52.018;8.570;2022-08-19T08:59:07;23.60;99.90
23237;DHT22;11787;52.018;8.570;2022-08-19T09:01:35;23.40;99.90
23237;DHT22;11787;52.018;8.570;2022-08-19T09:04:05;23.30;99.90
23237;DHT22;11787;52.018;8.570;2022-08-19T09:06:40;23.30;99.90
23237;DHT22;11787;52.018;8.570;2022-08-19T09:09:12;23.50;99.90
23237;DHT22;11787;52.018;8.570;2022-08-19T09:16:33;23.90;99.90
23237;DHT22;11787;52.018;8.570;2022-08-19T09:19:03;24.10;99.90
23237;DHT22;11787;52.018;8.570;2022-08-19T09:21:29;24.10;99.90
23237;DHT22;11787;52.018;8.570;2022-08-19T09:23:55;24.10;99.90
23237;DHT22;11787;52.018;8.570;2022-08-19T09:26:21;24.30;99.90
23237;DHT22;11787;52.018;8.570;2022-08-19T09:28:48;24.50;99.90
23237;DHT22;11787;52.018;8.570;2022-08-19T09:31:15;24.70;99.90
23237;DHT22;11787;52.018;8.570;2022-08-19T09:33:41;24.80;99.90
23237;DHT22;11787;52.018;8.570;2022-08-19T09:36:10;25.00;99.90
23237;DHT22;11787;52.018;8.570;2022-08-19T09:38:36;25.20;99.90
23237;DHT22;11787;52.018;8.570;2022-08-19T09:41:03;25.40;99.90
23237;DHT22;11787;52.018;8.570;2022-08-19T09:43:29;25.30;99.90
23237;DHT22;11787;52.018;8.570;2022-08-19T09:45:56;25.30;99.90
23237;DHT22;11787;52.018;8.570;2022-08-19T09:48:22;25.70;99.90
23237;DHT22;11787;52.018;8.570;2022-08-19T09:50:47;26.00;99.90
23237;DHT22;11787;52.018;8.570;2022-08-19T09:53:13;26.10;99.90
23237;DHT22;11787;52.018;8.570;2022-08-19T09:55:42;26.10;99.90
23237;DHT22;11787;52.018;8.570;2022-08-19T09:58:07;25.90;99.90
23237;DHT22;11787;52.018;8.570;2022-08-19T10:00:33;26.10;99.90
23237;DHT22;11787;52.018;8.570;2022-08-19T10:02:59;26.50;99.90
23237;DHT22;11787;52.018;8.570;2022-08-19T10:05:24;26.70;99.90
23237;DHT22;11787;52.018;8.570;2022-08-19T10:08:09;26.70;99.90
23237;DHT22;11787;52.018;8.570;2022-08-19T10:10:37;26.50;99.90
23237;DHT22;11787;52.018;8.570;2022-08-19T10:13:02;26.30;99.90
23237;DHT22;11787;52.018;8.570;2022-08-19T10:15:29;26.40;99.90
23237;DHT22;11787;52.018;8.570;2022-08-19T10:17:54;26.30;99.90
23237;DHT22;11787;52.018;8.570;2022-08-19T10:20:20;26.10;99.90
23237;DHT22;11787;52.018;8.570;2022-08-19T10:22:46;26.00;99.90
23237;DHT22;11787;52.018;8.570;2022-08-19T10:25:12;26.10;99.90
23237;DHT22;11787;52.018;8.570;2022-08-19T10:27:41;26.20;99.90
23237;DHT22;11787;52.018;8.570;2022-08-19T10:30:07;26.30;99.90
23237;DHT22;11787;52.018;8.570;2022-08-19T10:32:33;26.40;99.90
23237;DHT22;11787;52.018;8.570;2022-08-19T10:34:59;26.70;99.90
23237;DHT22;11787;52.018;8.570;2022-08-19T10:37:24;27.10;99.90
23237;DHT22;11787;52.018;8.570;2022-08-19T10:39:50;27.50;99.90
23237;DHT22;11787;52.018;8.570;2022-08-19T10:42:15;27.80;99.90
23237;DHT22;11787;52.018;8.570;2022-08-19T10:44:42;27.90;99.90
23237;DHT22;11787;52.018;8.570;2022-08-19T10:47:08;27.80;99.90
23237;DHT22;11787;52.018;8.570;2022-08-19T10:49:33;27.20;99.90
23237;DHT22;11787;52.018;8.570;2022-08-19T10:52:19;26.90;99.90
23237;DHT22;11787;52.018;8.570;2022-08-19T10:55:00;27.10;99.90
23237;DHT22;11787;52.018;8.570;2022-08-19T10:57:44;27.70;99.90
23237;DHT22;11787;52.018;8.570;2022-08-19T11:00:10;27.70;99.90
23237;DHT22;11787;52.018;8.570;2022-08-19T11:02:36;27.70;99.90
23237;DHT22;11787;52.018;8.570;2022-08-19T11:05:02;27.90;99.90
23237;DHT22;11787;52.018;8.570;2022-08-19T11:27:06;29.20;99.90
23237;DHT22;11787;52.018;8.570;2022-08-19T11:29:33;28.70;99.90
23237;DHT22;11787;52.018;8.570;2022-08-19T11:32:02;28.60;99.90
23237;DHT22;11787;52.018;8.570;2022-08-19T11:34:28;28.80;99.90
23237;DHT22;11787;52.018;8.570;2022-08-19T11:36:55;28.90;99.90
23237;DHT22;11787;52.018;8.570;2022-08-19T11:39:24;29.10;99.90
23237;DHT22;11787;52.018;8.570;2022-08-19T11:41:50;28.80;99.90
23237;DHT22;11787;52.018;8.570;2022-08-19T11:44:16;29.10;99.90
23237;DHT22;11787;52.018;8.570;2022-08-19T11:46:42;29.50;99.90
23237;DHT22;11787;52.018;8.570;2022-08-19T11:49:11;29.30;99.90
23237;DHT22;11787;52.018;8.570;2022-08-19T11:51:37;29.30;99.90
23237;DHT22;11787;52.018;8.570;2022-08-19T11:54:04;29.20;99.90
23237;DHT22;11787;52.018;8.570;2022-08-19T11:56:29;29.40;99.90
23237;DHT22;11787;52.018;8.570;2022-08-19T11:58:55;29.50;99.90
23237;DHT22;11787;52.018;8.570;2022-08-19T12:01:23;29.60;99.90
23237;DHT22;11787;52.018;8.570;2022-08-19T12:03:49;29.30;99.90
23237;DHT22;11787;52.018;8.570;2022-08-19T12:06:17;29.60;99.90
23237;DHT22;11787;52.018;8.570;2022-08-19T12:08:42;30.10;99.90
23237;DHT22;11787;52.018;8.570;2022-08-19T12:11:08;29.50;99.90
23237;DHT22;11787;52.018;8.570;2022-08-19T12:13:34;29.40;99.90
23237;DHT22;11787;52.018;8.570;2022-08-19T12:16:00;29.50;99.90
23237;DHT22;11787;52.018;8.570;2022-08-19T12:18:26;29.30;99.90
23237;DHT22;11787;52.018;8.570;2022-08-19T12:20:52;29.50;99.90
23237;DHT22;11787;52.018;8.570;2022-08-19T12:23:18;29.60;99.90
23237;DHT22;11787;52.018;8.570;2022-08-19T12:25:44;29.70;99.90
23237;DHT22;11787;52.018;8.570;2022-08-19T12:28:20;30.20;99.90
23237;DHT22;11787;52.018;8.570;2022-08-19T12:30:47;30.40;99.90
23237;DHT22;11787;52.018;8.570;2022-08-19T12:33:12;30.40;99.90
23237;DHT22;11787;52.018;8.570;2022-08-19T12:35:42;30.80;99.90
23237;DHT22;11787;52.018;8.570;2022-08-19T12:38:09;30.50;99.90
23237;DHT22;11787;52.018;8.570;2022-08-19T12:40:35;30.40;99.90
23237;DHT22;11787;52.018;8.570;2022-08-19T12:43:01;30.60;99.90
23237;DHT22;11787;52.018;8.570;2022-08-19T12:45:26;30.80;99.90
23237;DHT22;11787;52.018;8.570;2022-08-19T12:47:52;30.60;99.90
23237;DHT22;11787;52.018;8.570;2022-08-19T12:50:18;30.60;99.90
23237;DHT22;11787;52.018;8.570;2022-08-19T12:52:44;30.50;99.90
23237;DHT22;11787;52.018;8.570;2022-08-19T12:55:10;30.40;99.90
23237;DHT22;11787;52.018;8.570;2022-08-19T12:57:36;30.50;99.90
23237;DHT22;11787;52.018;8.570;2022-08-19T13:00:12;30.20;99.90
23237;DHT22;11787;52.018;8.570;2022-08-19T13:02:39;29.70;99.90
23237;DHT22;11787;52.018;8.570;2022-08-19T13:05:09;29.40;99.90
23237;DHT22;11787;52.018;8.570;2022-08-19T13:07:36;29.30;99.90
23237;DHT22;11787;52.018;8.570;2022-08-19T13:10:04;29.40;99.90
23237;DHT22;11787;52.018;8.570;2022-08-19T13:12:29;29.50;99.90
23237;DHT22;11787;52.018;8.570;2022-08-19T13:14:55;29.50;99.90
23237;DHT22;11787;52.018;8.570;2022-08-19T13:17:20;29.70;99.90
23237;DHT22;11787;52.018;8.570;2022-08-19T13:19:46;29.40;99.90
23237;DHT22;11787;52.018;8.570;2022-08-19T13:22:11;29.40;99.90
23237;DHT22;11787;52.018;8.570;2022-08-19T13:24:37;29.50;99.90
23237;DHT22;11787;52.018;8.570;2022-08-19T13:27:04;29.70;99.90
23237;DHT22;11787;52.018;8.570;2022-08-19T13:29:30;29.40;99.90
23237;DHT22;11787;52.018;8.570;2022-08-19T13:32:14;29.40;99.90
23237;DHT22;11787;52.018;8.570;2022-08-19T13:34:58;29.70;99.90
23237;DHT22;11787;52.018;8.570;2022-08-19T13:37:24;29.80;99.90
23237;DHT22;11787;52.018;8.570;2022-08-19T13:40:08;29.80;99.90
23237;DHT22;11787;52.018;8.570;2022-08-19T13:42:38;30.00;99.90
23237;DHT22;11787;52.018;8.570;2022-08-19T13:45:04;30.00;99.90
23237;DHT22;11787;52.018;8.570;2022-08-19T13:47:31;29.80;99.90
23237;DHT22;11787;52.018;8.570;2022-08-19T13:49:57;29.30;99.90
23237;DHT22;11787;52.018;8.570;2022-08-19T13:52:22;29.30;99.90
23237;DHT22;11787;52.018;8.570;2022-08-19T13:54:48;29.30;99.90
23237;DHT22;11787;52.018;8.570;2022-08-19T13:57:14;29.40;99.90
23237;DHT22;11787;52.018;8.570;2022-08-19T13:59:39;29.50;99.90
23237;DHT22;11787;52.018;8.570;2022-08-19T14:02:05;29.80;99.90
23237;DHT22;11787;52.018;8.570;2022-08-19T14:04:30;29.70;99.90
23237;DHT22;11787;52.018;8.570;2022-08-19T14:06:56;29.60;99.90
23237;DHT22;11787;52.018;8.570;2022-08-19T14:09:22;29.30;99.90
23237;DHT22;11787;52.018;8.570;2022-08-19T14:11:47;29.00;99.90
23237;DHT22;11787;52.018;8.570;2022-08-19T14:14:15;29.00;99.90
23237;DHT22;11787;52.018;8.570;2022-08-19T14:16:41;29.10;99.90
23237;DHT22;11787;52.018;8.570;2022-08-19T14:19:06;28.90;99.90
23237;DHT22;11787;52.018;8.570;2022-08-19T14:21:32;28.50;99.90
23237;DHT22;11787;52.018;8.570;2022-08-19T14:23:58;28.40;99.90
23237;DHT22;11787;52.018;8.570;2022-08-19T14:26:24;28.10;99.90
23237;DHT22;11787;52.018;8.570;2022-08-19T14:28:49;27.80;99.90
23237;DHT22;11787;52.018;8.570;2022-08-19T14:31:16;27.90;99.90
23237;DHT22;11787;52.018;8.570;2022-08-19T14:33:47;27.80;99.90
23237;DHT22;11787;52.018;8.570;2022-08-19T14:36:12;27.70;99.90
23237;DHT22;11787;52.018;8.570;2022-08-19T14:38:38;27.70;99.90
23237;DHT22;11787;52.018;8.570;2022-08-19T14:41:14;27.90;99.90
23237;DHT22;11787;52.018;8.570;2022-08-19T14:43:45;28.10;99.90
23237;DHT22;11787;52.018;8.570;2022-08-19T14:46:12;28.30;99.90
23237;DHT22;11787;52.018;8.570;2022-08-19T14:48:38;28.50;99.90
23237;DHT22;11787;52.018;8.570;2022-08-19T14:51:05;28.60;99.90
23237;DHT22;11787;52.018;8.570;2022-08-19T14:53:31;28.40;99.90
23237;DHT22;11787;52.018;8.570;2022-08-19T14:55:59;28.50;99.90
23237;DHT22;11787;52.018;8.570;2022-08-19T14:58:25;28.40;99.90
23237;DHT22;11787;52.018;8.570;2022-08-19T15:00:51;28.30;99.90
23237;DHT22;11787;52.018;8.570;2022-08-19T15:03:17;28.20;99.90
23237;DHT22;11787;52.018;8.570;2022-08-19T15:05:42;28.50;99.90
23237;DHT22;11787;52.018;8.570;2022-08-19T15:08:08;28.60;99.90
23237;DHT22;11787;52.018;8.570;2022-08-19T15:10:33;28.70;99.90
23237;DHT22;11787;52.018;8.570;2022-08-19T15:12:59;28.70;99.90
23237;DHT22;11787;52.018;8.570;2022-08-19T15:15:25;28.80;99.90
23237;DHT22;11787;52.018;8.570;2022-08-19T15:17:51;28.80;99.90
23237;DHT22;11787;52.018;8.570;2022-08-19T15:20:18;28.90;99.90
23237;DHT22;11787;52.018;8.570;2022-08-19T15:22:45;28.90;99.90
23237;DHT22;11787;52.018;8.570;2022-08-19T15:25:13;28.60;99.90
23237;DHT22;11787;52.018;8.570;2022-08-19T15:27:40;28.60;99.90
23237;DHT22;11787;52.018;8.570;2022-08-19T15:30:07;28.60;99.90
23237;DHT22;11787;52.018;8.570;2022-08-19T15:32:34;28.50;99.90
23237;DHT22;11787;52.018;8.570;2022-08-19T15:35:00;28.50;99.90
23237;DHT22;11787;52.018;8.570;2022-08-19T15:37:28;28.50;99.90
23237;DHT22;11787;52.018;8.570;2022-08-19T15:39:54;28.40;99.90
23237;DHT22;11787;52.018;8.570;2022-08-19T15:42:19;28.40;99.90
23237;DHT22;11787;52.018;8.570;2022-08-19T15:44:46;28.40;99.90
23237;DHT22;11787;52.018;8.570;2022-08-19T15:47:12;28.40;99.90
23237;DHT22;11787;52.018;8.570;2022-08-19T15:49:38;28.50;99.90
23237;DHT22;11787;52.018;8.570;2022-08-19T15:52:04;28.30;99.90
23237;DHT22;11787;52.018;8.570;2022-08-19T15:54:31;28.10;99.90
23237;DHT22;11787;52.018;8.570;2022-08-19T15:56:57;28.00;99.90
23237;DHT22;11787;52.018;8.570;2022-08-19T15:59:41;28.00;99.90
23237;DHT22;11787;52.018;8.570;2022-08-19T16:02:26;28.00;99.90